sensor_id;sensor_type;location;lat;lon;timestamp;P1;durP1;ratioP1;P2;durP2;ratioP2
75682;SDS011;64295;44.772;39.872;2023-04-25T00:02:40;3.53;;;1.30;;
75682;SDS011;64295;44.772;39.872;2023-04-25T00:05:09;0.20;;;0.20;;
75682;SDS011;64295;44.772;39.872;2023-04-25T00:07:37;1.20;;;0.52;;
75682;SDS011;64295;44.772;39.872;2023-04-25T00:10:29;0.73;;;0.60;;
75682;SDS011;64295;44.772;39.872;2023-04-25T00:12:57;0.75;;;0.50;;
75682;SDS011;64295;44.772;39.872;2023-04-25T00:15:24;2.45;;;0.68;;
75682;SDS011;64295;44.772;39.872;2023-04-25T00:18:00;1.02;;;0.95;;
75682;SDS011;64295;44.772;39.872;2023-04-25T00:20:26;1.48;;;0.57;;
75682;SDS011;64295;44.772;39.872;2023-04-25T00:22:52;0.68;;;0.50;;
75682;SDS011;64295;44.772;39.872;2023-04-25T00:25:18;2.58;;;0.45;;
75682;SDS011;64295;44.772;39.872;2023-04-25T00:27:44;1.58;;;0.57;;
75682;SDS011;64295;44.772;39.872;2023-04-25T00:30:11;0.60;;;0.60;;
75682;SDS011;64295;44.772;39.872;2023-04-25T00:32:37;0.43;;;0.43;;
75682;SDS011;64295;44.772;39.872;2023-04-25T00:35:03;0.65;;;0.65;;
75682;SDS011;64295;44.772;39.872;2023-04-25T00:37:30;0.43;;;0.43;;
75682;SDS011;64295;44.772;39.872;2023-04-25T00:39:57;0.13;;;0.10;;
75682;SDS011;64295;44.772;39.872;2023-04-25T00:42:24;1.13;;;0.43;;
75682;SDS011;64295;44.772;39.872;2023-04-25T00:44:51;1.60;;;1.27;;
75682;SDS011;64295;44.772;39.872;2023-04-25T00:47:18;1.17;;;1.02;;
75682;SDS011;64295;44.772;39.872;2023-04-25T00:49:44;2.58;;;0.82;;
75682;SDS011;64295;44.772;39.872;2023-04-25T00:52:11;7.70;;;0.95;;
75682;SDS011;64295;44.772;39.872;2023-04-25T00:54:37;3.15;;;0.65;;
75682;SDS011;64295;44.772;39.872;2023-04-25T00:57:03;2.88;;;0.57;;
75682;SDS011;64295;44.772;39.872;2023-04-25T00:59:33;1.58;;;0.93;;
75682;SDS011;64295;44.772;39.872;2023-04-25T01:02:09;0.68;;;0.55;;
75682;SDS011;64295;44.772;39.872;2023-04-25T01:04:35;1.92;;;0.57;;
75682;SDS011;64295;44.772;39.872;2023-04-25T01:07:01;1.20;;;0.80;;
75682;SDS011;64295;44.772;39.872;2023-04-25T01:09:28;1.83;;;0.75;;
75682;SDS011;64295;44.772;39.872;2023-04-25T01:11:57;1.52;;;0.43;;
75682;SDS011;64295;44.772;39.872;2023-04-25T01:14:26;1.38;;;0.68;;
75682;SDS011;64295;44.772;39.872;2023-04-25T01:16:52;0.88;;;0.52;;
75682;SDS011;64295;44.772;39.872;2023-04-25T01:19:18;1.42;;;0.50;;
75682;SDS011;64295;44.772;39.872;2023-04-25T01:21:45;3.00;;;1.05;;
75682;SDS011;64295;44.772;39.872;2023-04-25T01:24:12;5.03;;;0.93;;
75682;SDS011;64295;44.772;39.872;2023-04-25T01:26:38;1.00;;;0.60;;
75682;SDS011;64295;44.772;39.872;2023-04-25T01:29:09;0.65;;;0.43;;
75682;SDS011;64295;44.772;39.872;2023-04-25T01:31:36;1.08;;;0.50;;
75682;SDS011;64295;44.772;39.872;2023-04-25T01:34:04;0.88;;;0.63;;
75682;SDS011;64295;44.772;39.872;2023-04-25T01:36:30;2.40;;;0.40;;
75682;SDS011;64295;44.772;39.872;2023-04-25T01:38:56;0.50;;;0.30;;
75682;SDS011;64295;44.772;39.872;2023-04-25T01:41:22;0.57;;;0.57;;
75682;SDS011;64295;44.772;39.872;2023-04-25T01:43:49;1.25;;;0.52;;
75682;SDS011;64295;44.772;39.872;2023-04-25T01:46:17;1.02;;;0.50;;
75682;SDS011;64295;44.772;39.872;2023-04-25T01:51:23;0.70;;;0.50;;
75682;SDS011;64295;44.772;39.872;2023-04-25T01:53:48;0.88;;;0.50;;
75682;SDS011;64295;44.772;39.872;2023-04-25T01:56:15;0.95;;;0.40;;
75682;SDS011;64295;44.772;39.872;2023-04-25T01:58:41;0.88;;;0.57;;
75682;SDS011;64295;44.772;39.872;2023-04-25T02:01:36;1.02;;;0.43;;
75682;SDS011;64295;44.772;39.872;2023-04-25T02:04:14;0.68;;;0.50;;
75682;SDS011;64295;44.772;39.872;2023-04-25T02:06:41;1.33;;;0.88;;
75682;SDS011;64295;44.772;39.872;2023-04-25T02:09:07;3.45;;;0.45;;
75682;SDS011;64295;44.772;39.872;2023-04-25T02:11:38;0.20;;;0.20;;
75682;SDS011;64295;44.772;39.872;2023-04-25T02:14:24;1.85;;;0.95;;
75682;SDS011;64295;44.772;39.872;2023-04-25T02:17:02;1.65;;;0.75;;
75682;SDS011;64295;44.772;39.872;2023-04-25T02:19:29;0.20;;;0.20;;
75682;SDS011;64295;44.772;39.872;2023-04-25T02:21:55;1.00;;;0.90;;
75682;SDS011;64295;44.772;39.872;2023-04-25T02:24:22;1.02;;;0.73;;
75682;SDS011;64295;44.772;39.872;2023-04-25T02:26:48;0.55;;;0.50;;
75682;SDS011;64295;44.772;39.872;2023-04-25T02:29:16;0.20;;;0.13;;
75682;SDS011;64295;44.772;39.872;2023-04-25T02:31:42;0.30;;;0.25;;
75682;SDS011;64295;44.772;39.872;2023-04-25T02:34:08;0.52;;;0.52;;
75682;SDS011;64295;44.772;39.872;2023-04-25T02:36:37;0.30;;;0.30;;
75682;SDS011;64295;44.772;39.872;2023-04-25T02:39:03;0.47;;;0.25;;
75682;SDS011;64295;44.772;39.872;2023-04-25T02:41:36;1.25;;;0.63;;
75682;SDS011;64295;44.772;39.872;2023-04-25T02:44:04;0.30;;;0.30;;
75682;SDS011;64295;44.772;39.872;2023-04-25T02:46:44;0.38;;;0.30;;
75682;SDS011;64295;44.772;39.872;2023-04-25T02:49:15;2.88;;;0.47;;
75682;SDS011;64295;44.772;39.872;2023-04-25T02:51:41;1.63;;;0.70;;
75682;SDS011;64295;44.772;39.872;2023-04-25T02:54:07;1.45;;;0.40;;
75682;SDS011;64295;44.772;39.872;2023-04-25T02:56:38;0.60;;;0.32;;
75682;SDS011;64295;44.772;39.872;2023-04-25T02:59:08;1.67;;;0.40;;
75682;SDS011;64295;44.772;39.872;2023-04-25T03:01:34;0.85;;;0.30;;
75682;SDS011;64295;44.772;39.872;2023-04-25T03:04:00;0.95;;;0.00;;
75682;SDS011;64295;44.772;39.872;2023-04-25T03:06:26;0.20;;;0.20;;
75682;SDS011;64295;44.772;39.872;2023-04-25T03:08:52;0.50;;;0.47;;
75682;SDS011;64295;44.772;39.872;2023-04-25T03:11:18;0.52;;;0.47;;
75682;SDS011;64295;44.772;39.872;2023-04-25T03:13:53;0.90;;;0.15;;
75682;SDS011;64295;44.772;39.872;2023-04-25T03:16:19;1.38;;;0.20;;
75682;SDS011;64295;44.772;39.872;2023-04-25T03:18:46;0.50;;;0.20;;
75682;SDS011;64295;44.772;39.872;2023-04-25T03:21:15;0.38;;;0.22;;
75682;SDS011;64295;44.772;39.872;2023-04-25T03:23:41;0.20;;;0.20;;
75682;SDS011;64295;44.772;39.872;2023-04-25T03:26:07;0.15;;;0.10;;
75682;SDS011;64295;44.772;39.872;2023-04-25T03:28:33;0.00;;;0.00;;
75682;SDS011;64295;44.772;39.872;2023-04-25T03:30:59;0.15;;;0.15;;
75682;SDS011;64295;44.772;39.872;2023-04-25T03:33:25;0.20;;;0.20;;
75682;SDS011;64295;44.772;39.872;2023-04-25T03:35:51;0.50;;;0.40;;
75682;SDS011;64295;44.772;39.872;2023-04-25T03:38:17;0.13;;;0.10;;
75682;SDS011;64295;44.772;39.872;2023-04-25T03:40:50;0.65;;;0.15;;
75682;SDS011;64295;44.772;39.872;2023-04-25T03:43:42;0.55;;;0.40;;
75682;SDS011;64295;44.772;39.872;2023-04-25T03:46:11;3.72;;;0.30;;
75682;SDS011;64295;44.772;39.872;2023-04-25T03:48:39;0.50;;;0.20;;
75682;SDS011;64295;44.772;39.872;2023-04-25T03:51:06;0.95;;;0.55;;
75682;SDS011;64295;44.772;39.872;2023-04-25T03:53:37;5.55;;;0.35;;
75682;SDS011;64295;44.772;39.872;2023-04-25T03:56:18;0.65;;;0.35;;
75682;SDS011;64295;44.772;39.872;2023-04-25T03:58:49;0.20;;;0.20;;
75682;SDS011;64295;44.772;39.872;2023-04-25T04:01:18;0.47;;;0.32;;
75682;SDS011;64295;44.772;39.872;2023-04-25T04:03:44;0.20;;;0.10;;
75682;SDS011;64295;44.772;39.872;2023-04-25T04:06:10;0.10;;;0.10;;
75682;SDS011;64295;44.772;39.872;2023-04-25T04:08:39;1.23;;;0.30;;
75682;SDS011;64295;44.772;39.872;2023-04-25T04:11:05;0.22;;;0.17;;
75682;SDS011;64295;44.772;39.872;2023-04-25T04:13:32;0.40;;;0.20;;
75682;SDS011;64295;44.772;39.872;2023-04-25T04:15:58;0.43;;;0.15;;
75682;SDS011;64295;44.772;39.872;2023-04-25T04:18:25;0.20;;;0.20;;
75682;SDS011;64295;44.772;39.872;2023-04-25T04:20:52;0.13;;;0.13;;
75682;SDS011;64295;44.772;39.872;2023-04-25T04:23:18;0.40;;;0.30;;
75682;SDS011;64295;44.772;39.872;2023-04-25T04:25:46;0.47;;;0.28;;
75682;SDS011;64295;44.772;39.872;2023-04-25T04:28:31;0.25;;;0.10;;
75682;SDS011;64295;44.772;39.872;2023-04-25T04:31:21;0.25;;;0.20;;
75682;SDS011;64295;44.772;39.872;2023-04-25T04:33:47;0.28;;;0.13;;
75682;SDS011;64295;44.772;39.872;2023-04-25T04:36:14;2.83;;;0.35;;
75682;SDS011;64295;44.772;39.872;2023-04-25T04:38:41;0.10;;;0.10;;
75682;SDS011;64295;44.772;39.872;2023-04-25T04:41:13;0.00;;;0.00;;
75682;SDS011;64295;44.772;39.872;2023-04-25T04:44:05;0.08;;;0.08;;
75682;SDS011;64295;44.772;39.872;2023-04-25T04:46:42;0.13;;;0.03;;
75682;SDS011;64295;44.772;39.872;2023-04-25T04:49:24;0.45;;;0.05;;
75682;SDS011;64295;44.772;39.872;2023-04-25T04:52:17;1.65;;;0.20;;
75682;SDS011;64295;44.772;39.872;2023-04-25T04:55:15;0.32;;;0.15;;
75682;SDS011;64295;44.772;39.872;2023-04-25T04:58:06;0.15;;;0.10;;
75682;SDS011;64295;44.772;39.872;2023-04-25T05:00:49;0.20;;;0.20;;
75682;SDS011;64295;44.772;39.872;2023-04-25T05:03:51;0.00;;;0.00;;
75682;SDS011;64295;44.772;39.872;2023-04-25T05:06:39;0.13;;;0.00;;
75682;SDS011;64295;44.772;39.872;2023-04-25T05:09:31;0.03;;;0.03;;
75682;SDS011;64295;44.772;39.872;2023-04-25T05:12:21;0.22;;;0.15;;
75682;SDS011;64295;44.772;39.872;2023-04-25T05:14:57;0.28;;;0.17;;
75682;SDS011;64295;44.772;39.872;2023-04-25T05:17:58;0.30;;;0.17;;
75682;SDS011;64295;44.772;39.872;2023-04-25T05:20:44;0.13;;;0.10;;
75682;SDS011;64295;44.772;39.872;2023-04-25T05:23:29;0.10;;;0.10;;
75682;SDS011;64295;44.772;39.872;2023-04-25T05:26:23;1.38;;;0.30;;
75682;SDS011;64295;44.772;39.872;2023-04-25T05:29:00;0.50;;;0.30;;
75682;SDS011;64295;44.772;39.872;2023-04-25T05:31:44;0.10;;;0.10;;
75682;SDS011;64295;44.772;39.872;2023-04-25T05:34:13;0.10;;;0.10;;
75682;SDS011;64295;44.772;39.872;2023-04-25T05:37:00;0.13;;;0.10;;
75682;SDS011;64295;44.772;39.872;2023-04-25T05:39:27;0.17;;;0.10;;
75682;SDS011;64295;44.772;39.872;2023-04-25T05:42:11;0.20;;;0.13;;
75682;SDS011;64295;44.772;39.872;2023-04-25T05:45:00;0.98;;;0.20;;
75682;SDS011;64295;44.772;39.872;2023-04-25T05:47:49;0.13;;;0.08;;
75682;SDS011;64295;44.772;39.872;2023-04-25T05:50:23;0.30;;;0.15;;
75682;SDS011;64295;44.772;39.872;2023-04-25T05:53:00;0.20;;;0.10;;
75682;SDS011;64295;44.772;39.872;2023-04-25T05:55:34;0.30;;;0.10;;
75682;SDS011;64295;44.772;39.872;2023-04-25T05:58:12;0.20;;;0.20;;
75682;SDS011;64295;44.772;39.872;2023-04-25T06:00:38;0.10;;;0.10;;
75682;SDS011;64295;44.772;39.872;2023-04-25T06:03:03;0.10;;;0.10;;
75682;SDS011;64295;44.772;39.872;2023-04-25T06:05:29;0.65;;;0.10;;
75682;SDS011;64295;44.772;39.872;2023-04-25T06:07:55;0.30;;;0.20;;
75682;SDS011;64295;44.772;39.872;2023-04-25T06:10:21;0.20;;;0.20;;
75682;SDS011;64295;44.772;39.872;2023-04-25T06:12:48;0.20;;;0.10;;
75682;SDS011;64295;44.772;39.872;2023-04-25T06:15:16;3.72;;;0.22;;
75682;SDS011;64295;44.772;39.872;2023-04-25T06:17:43;0.20;;;0.10;;
75682;SDS011;64295;44.772;39.872;2023-04-25T06:20:12;0.00;;;0.00;;
75682;SDS011;64295;44.772;39.872;2023-04-25T06:22:39;0.03;;;0.03;;
75682;SDS011;64295;44.772;39.872;2023-04-25T06:25:06;0.25;;;0.15;;
75682;SDS011;64295;44.772;39.872;2023-04-25T06:27:33;0.10;;;0.10;;
75682;SDS011;64295;44.772;39.872;2023-04-25T06:30:01;0.13;;;0.13;;
75682;SDS011;64295;44.772;39.872;2023-04-25T06:32:29;0.17;;;0.15;;
75682;SDS011;64295;44.772;39.872;2023-04-25T06:34:58;0.22;;;0.15;;
75682;SDS011;64295;44.772;39.872;2023-04-25T06:37:23;0.70;;;0.40;;
75682;SDS011;64295;44.772;39.872;2023-04-25T06:39:51;0.50;;;0.30;;
75682;SDS011;64295;44.772;39.872;2023-04-25T06:42:17;0.17;;;0.17;;
75682;SDS011;64295;44.772;39.872;2023-04-25T06:44:56;0.60;;;0.20;;
75682;SDS011;64295;44.772;39.872;2023-04-25T06:47:22;0.55;;;0.50;;
75682;SDS011;64295;44.772;39.872;2023-04-25T06:49:49;0.45;;;0.45;;
75682;SDS011;64295;44.772;39.872;2023-04-25T06:52:16;0.45;;;0.20;;
75682;SDS011;64295;44.772;39.872;2023-04-25T06:54:44;0.70;;;0.50;;
75682;SDS011;64295;44.772;39.872;2023-04-25T06:57:33;0.43;;;0.35;;
75682;SDS011;64295;44.772;39.872;2023-04-25T07:00:16;0.20;;;0.20;;
75682;SDS011;64295;44.772;39.872;2023-04-25T07:02:42;0.43;;;0.22;;
75682;SDS011;64295;44.772;39.872;2023-04-25T07:05:08;0.98;;;0.60;;
75682;SDS011;64295;44.772;39.872;2023-04-25T07:07:34;0.57;;;0.22;;
75682;SDS011;64295;44.772;39.872;2023-04-25T07:10:01;1.52;;;0.50;;
75682;SDS011;64295;44.772;39.872;2023-04-25T07:12:27;1.02;;;0.40;;
75682;SDS011;64295;44.772;39.872;2023-04-25T07:14:53;1.02;;;0.60;;
75682;SDS011;64295;44.772;39.872;2023-04-25T07:17:19;1.23;;;0.65;;
75682;SDS011;64295;44.772;39.872;2023-04-25T07:19:45;0.65;;;0.47;;
75682;SDS011;64295;44.772;39.872;2023-04-25T07:22:11;1.00;;;0.68;;
75682;SDS011;64295;44.772;39.872;2023-04-25T07:24:40;1.45;;;0.73;;
75682;SDS011;64295;44.772;39.872;2023-04-25T07:27:08;0.88;;;0.50;;
75682;SDS011;64295;44.772;39.872;2023-04-25T07:29:52;0.98;;;0.60;;
75682;SDS011;64295;44.772;39.872;2023-04-25T07:32:21;1.35;;;0.93;;
75682;SDS011;64295;44.772;39.872;2023-04-25T07:34:47;1.17;;;0.88;;
75682;SDS011;64295;44.772;39.872;2023-04-25T07:37:13;1.48;;;0.77;;
75682;SDS011;64295;44.772;39.872;2023-04-25T07:39:54;1.95;;;0.85;;
75682;SDS011;64295;44.772;39.872;2023-04-25T07:42:20;2.95;;;1.02;;
75682;SDS011;64295;44.772;39.872;2023-04-25T07:44:47;3.78;;;1.25;;
75682;SDS011;64295;44.772;39.872;2023-04-25T07:47:14;2.40;;;1.33;;
75682;SDS011;64295;44.772;39.872;2023-04-25T07:49:40;4.45;;;1.13;;
75682;SDS011;64295;44.772;39.872;2023-04-25T07:52:06;5.47;;;0.70;;
75682;SDS011;64295;44.772;39.872;2023-04-25T07:54:34;1.08;;;0.90;;
75682;SDS011;64295;44.772;39.872;2023-04-25T07:57:07;1.30;;;0.60;;
75682;SDS011;64295;44.772;39.872;2023-04-25T07:59:35;3.25;;;0.68;;
75682;SDS011;64295;44.772;39.872;2023-04-25T08:02:02;1.35;;;0.80;;
75682;SDS011;64295;44.772;39.872;2023-04-25T08:04:28;2.28;;;1.17;;
75682;SDS011;64295;44.772;39.872;2023-04-25T08:07:00;1.27;;;0.80;;
75682;SDS011;64295;44.772;39.872;2023-04-25T08:09:31;2.67;;;0.98;;
75682;SDS011;64295;44.772;39.872;2023-04-25T08:12:02;2.15;;;1.05;;
75682;SDS011;64295;44.772;39.872;2023-04-25T08:14:31;2.92;;;1.08;;
75682;SDS011;64295;44.772;39.872;2023-04-25T08:17:02;0.98;;;0.60;;
75682;SDS011;64295;44.772;39.872;2023-04-25T08:19:33;0.75;;;0.65;;
75682;SDS011;64295;44.772;39.872;2023-04-25T08:22:00;3.97;;;0.85;;
75682;SDS011;64295;44.772;39.872;2023-04-25T08:24:35;3.95;;;0.70;;
75682;SDS011;64295;44.772;39.872;2023-04-25T08:27:02;1.35;;;0.75;;
75682;SDS011;64295;44.772;39.872;2023-04-25T08:29:30;2.88;;;1.45;;
75682;SDS011;64295;44.772;39.872;2023-04-25T08:31:56;2.53;;;0.68;;
75682;SDS011;64295;44.772;39.872;2023-04-25T08:34:23;2.83;;;1.10;;
75682;SDS011;64295;44.772;39.872;2023-04-25T08:36:51;1.17;;;0.85;;
75682;SDS011;64295;44.772;39.872;2023-04-25T08:39:49;2.67;;;0.82;;
75682;SDS011;64295;44.772;39.872;2023-04-25T08:42:41;3.03;;;1.00;;
75682;SDS011;64295;44.772;39.872;2023-04-25T08:45:08;5.03;;;1.00;;
75682;SDS011;64295;44.772;39.872;2023-04-25T08:47:38;1.38;;;0.80;;
75682;SDS011;64295;44.772;39.872;2023-04-25T08:50:07;1.77;;;0.70;;
75682;SDS011;64295;44.772;39.872;2023-04-25T08:52:39;1.20;;;0.70;;
75682;SDS011;64295;44.772;39.872;2023-04-25T08:55:13;1.17;;;0.63;;
75682;SDS011;64295;44.772;39.872;2023-04-25T08:57:43;5.38;;;1.20;;
75682;SDS011;64295;44.772;39.872;2023-04-25T09:00:10;0.80;;;0.70;;
75682;SDS011;64295;44.772;39.872;2023-04-25T09:02:40;2.28;;;1.10;;
75682;SDS011;64295;44.772;39.872;2023-04-25T09:05:08;3.05;;;1.00;;
75682;SDS011;64295;44.772;39.872;2023-04-25T09:07:39;15.68;;;1.42;;
75682;SDS011;64295;44.772;39.872;2023-04-25T09:10:06;3.88;;;0.98;;
75682;SDS011;64295;44.772;39.872;2023-04-25T09:12:37;1.30;;;0.70;;
75682;SDS011;64295;44.772;39.872;2023-04-25T09:15:10;3.33;;;0.95;;
75682;SDS011;64295;44.772;39.872;2023-04-25T09:18:03;7.03;;;0.90;;
75682;SDS011;64295;44.772;39.872;2023-04-25T09:20:36;1.60;;;0.90;;
75682;SDS011;64295;44.772;39.872;2023-04-25T09:23:08;0.50;;;0.40;;
75682;SDS011;64295;44.772;39.872;2023-04-25T09:25:37;2.97;;;0.63;;
75682;SDS011;64295;44.772;39.872;2023-04-25T09:28:06;4.28;;;0.82;;
75682;SDS011;64295;44.772;39.872;2023-04-25T09:30:33;1.00;;;0.73;;
75682;SDS011;64295;44.772;39.872;2023-04-25T09:33:10;1.20;;;0.73;;
75682;SDS011;64295;44.772;39.872;2023-04-25T09:35:44;1.38;;;0.60;;
75682;SDS011;64295;44.772;39.872;2023-04-25T09:38:28;3.58;;;1.05;;
75682;SDS011;64295;44.772;39.872;2023-04-25T09:40:59;2.75;;;0.85;;
75682;SDS011;64295;44.772;39.872;2023-04-25T09:43:39;1.13;;;0.73;;
75682;SDS011;64295;44.772;39.872;2023-04-25T09:46:11;2.80;;;0.88;;
75682;SDS011;64295;44.772;39.872;2023-04-25T09:48:50;1.80;;;0.98;;
75682;SDS011;64295;44.772;39.872;2023-04-25T09:51:22;1.95;;;0.68;;
75682;SDS011;64295;44.772;39.872;2023-04-25T09:53:53;0.90;;;0.60;;
75682;SDS011;64295;44.772;39.872;2023-04-25T09:56:35;0.90;;;0.70;;
75682;SDS011;64295;44.772;39.872;2023-04-25T09:59:06;0.90;;;0.52;;
75682;SDS011;64295;44.772;39.872;2023-04-25T10:04:11;0.93;;;0.50;;
75682;SDS011;64295;44.772;39.872;2023-04-25T10:07:10;2.00;;;0.70;;
75682;SDS011;64295;44.772;39.872;2023-04-25T10:09:38;1.90;;;0.63;;
75682;SDS011;64295;44.772;39.872;2023-04-25T10:12:05;2.65;;;1.15;;
75682;SDS011;64295;44.772;39.872;2023-04-25T10:14:33;3.30;;;0.93;;
75682;SDS011;64295;44.772;39.872;2023-04-25T10:17:00;3.33;;;0.90;;
75682;SDS011;64295;44.772;39.872;2023-04-25T10:19:27;1.02;;;0.73;;
75682;SDS011;64295;44.772;39.872;2023-04-25T10:22:06;1.85;;;0.90;;
75682;SDS011;64295;44.772;39.872;2023-04-25T10:24:38;1.77;;;0.82;;
75682;SDS011;64295;44.772;39.872;2023-04-25T10:27:05;0.80;;;0.40;;
75682;SDS011;64295;44.772;39.872;2023-04-25T10:29:32;2.00;;;0.77;;
75682;SDS011;64295;44.772;39.872;2023-04-25T10:31:59;3.30;;;0.70;;
75682;SDS011;64295;44.772;39.872;2023-04-25T10:34:41;1.67;;;0.68;;
75682;SDS011;64295;44.772;39.872;2023-04-25T10:37:13;1.45;;;0.50;;
75682;SDS011;64295;44.772;39.872;2023-04-25T10:39:39;1.10;;;0.60;;
75682;SDS011;64295;44.772;39.872;2023-04-25T10:42:10;1.30;;;0.63;;
75682;SDS011;64295;44.772;39.872;2023-04-25T10:44:37;1.33;;;0.60;;
75682;SDS011;64295;44.772;39.872;2023-04-25T10:47:07;2.65;;;0.57;;
75682;SDS011;64295;44.772;39.872;2023-04-25T10:49:37;1.25;;;0.95;;
75682;SDS011;64295;44.772;39.872;2023-04-25T10:54:52;0.90;;;0.57;;
75682;SDS011;64295;44.772;39.872;2023-04-25T11:02:46;0.40;;;0.40;;
75682;SDS011;64295;44.772;39.872;2023-04-25T11:05:23;0.65;;;0.47;;
75682;SDS011;64295;44.772;39.872;2023-04-25T11:08:07;0.98;;;0.65;;
75682;SDS011;64295;44.772;39.872;2023-04-25T11:10:40;1.10;;;0.60;;
75682;SDS011;64295;44.772;39.872;2023-04-25T11:13:06;1.10;;;0.50;;
75682;SDS011;64295;44.772;39.872;2023-04-25T11:15:32;1.92;;;0.88;;
75682;SDS011;64295;44.772;39.872;2023-04-25T11:17:58;5.88;;;0.82;;
75682;SDS011;64295;44.772;39.872;2023-04-25T11:20:25;0.70;;;0.47;;
75682;SDS011;64295;44.772;39.872;2023-04-25T11:22:51;1.13;;;0.40;;
75682;SDS011;64295;44.772;39.872;2023-04-25T11:25:17;0.80;;;0.32;;
75682;SDS011;64295;44.772;39.872;2023-04-25T11:27:53;1.08;;;0.63;;
75682;SDS011;64295;44.772;39.872;2023-04-25T11:30:21;2.17;;;0.75;;
75682;SDS011;64295;44.772;39.872;2023-04-25T11:32:47;1.73;;;0.88;;
75682;SDS011;64295;44.772;39.872;2023-04-25T11:35:13;2.47;;;0.88;;
75682;SDS011;64295;44.772;39.872;2023-04-25T11:37:40;2.70;;;1.38;;
75682;SDS011;64295;44.772;39.872;2023-04-25T11:40:07;2.05;;;0.60;;
75682;SDS011;64295;44.772;39.872;2023-04-25T11:42:38;1.02;;;0.60;;
75682;SDS011;64295;44.772;39.872;2023-04-25T11:45:13;0.90;;;0.90;;
75682;SDS011;64295;44.772;39.872;2023-04-25T11:47:41;1.02;;;0.40;;
75682;SDS011;64295;44.772;39.872;2023-04-25T11:50:07;1.42;;;0.43;;
75682;SDS011;64295;44.772;39.872;2023-04-25T11:52:41;0.73;;;0.52;;
75682;SDS011;64295;44.772;39.872;2023-04-25T11:55:08;0.73;;;0.47;;
75682;SDS011;64295;44.772;39.872;2023-04-25T11:57:37;0.50;;;0.50;;
75682;SDS011;64295;44.772;39.872;2023-04-25T12:02:45;0.32;;;0.20;;
75682;SDS011;64295;44.772;39.872;2023-04-25T12:05:15;0.65;;;0.40;;
75682;SDS011;64295;44.772;39.872;2023-04-25T12:07:41;0.30;;;0.20;;
75682;SDS011;64295;44.772;39.872;2023-04-25T12:10:09;0.63;;;0.40;;
75682;SDS011;64295;44.772;39.872;2023-04-25T12:12:36;2.25;;;0.40;;
75682;SDS011;64295;44.772;39.872;2023-04-25T12:15:10;1.35;;;0.50;;
75682;SDS011;64295;44.772;39.872;2023-04-25T12:17:47;0.38;;;0.30;;
75682;SDS011;64295;44.772;39.872;2023-04-25T12:20:20;1.08;;;0.60;;
75682;SDS011;64295;44.772;39.872;2023-04-25T12:22:49;2.67;;;0.52;;
75682;SDS011;64295;44.772;39.872;2023-04-25T12:28:11;1.35;;;0.63;;
75682;SDS011;64295;44.772;39.872;2023-04-25T12:33:29;0.90;;;0.20;;
75682;SDS011;64295;44.772;39.872;2023-04-25T12:35:56;1.45;;;0.52;;
75682;SDS011;64295;44.772;39.872;2023-04-25T12:38:24;0.55;;;0.28;;
75682;SDS011;64295;44.772;39.872;2023-04-25T12:40:57;0.73;;;0.32;;
75682;SDS011;64295;44.772;39.872;2023-04-25T12:43:23;2.97;;;0.68;;
75682;SDS011;64295;44.772;39.872;2023-04-25T12:45:50;1.02;;;0.55;;
75682;SDS011;64295;44.772;39.872;2023-04-25T12:48:17;0.50;;;0.30;;
75682;SDS011;64295;44.772;39.872;2023-04-25T12:50:43;1.08;;;0.52;;
75682;SDS011;64295;44.772;39.872;2023-04-25T12:53:10;2.55;;;0.68;;
75682;SDS011;64295;44.772;39.872;2023-04-25T12:55:37;2.00;;;0.77;;
75682;SDS011;64295;44.772;39.872;2023-04-25T12:58:03;0.90;;;0.65;;
75682;SDS011;64295;44.772;39.872;2023-04-25T13:00:29;0.77;;;0.40;;
75682;SDS011;64295;44.772;39.872;2023-04-25T13:02:55;0.60;;;0.32;;
75682;SDS011;64295;44.772;39.872;2023-04-25T13:05:21;1.60;;;0.30;;
75682;SDS011;64295;44.772;39.872;2023-04-25T13:07:47;1.75;;;0.60;;
75682;SDS011;64295;44.772;39.872;2023-04-25T13:10:14;0.65;;;0.60;;
75682;SDS011;64295;44.772;39.872;2023-04-25T13:12:40;0.60;;;0.35;;
75682;SDS011;64295;44.772;39.872;2023-04-25T13:15:06;0.25;;;0.20;;
75682;SDS011;64295;44.772;39.872;2023-04-25T13:17:34;0.65;;;0.32;;
75682;SDS011;64295;44.772;39.872;2023-04-25T13:20:00;0.82;;;0.52;;
75682;SDS011;64295;44.772;39.872;2023-04-25T13:22:26;0.77;;;0.30;;
75682;SDS011;64295;44.772;39.872;2023-04-25T13:24:52;0.50;;;0.45;;
75682;SDS011;64295;44.772;39.872;2023-04-25T13:27:18;0.82;;;0.40;;
75682;SDS011;64295;44.772;39.872;2023-04-25T13:29:44;0.22;;;0.20;;
75682;SDS011;64295;44.772;39.872;2023-04-25T13:32:15;0.60;;;0.30;;
75682;SDS011;64295;44.772;39.872;2023-04-25T13:34:43;0.50;;;0.45;;
75682;SDS011;64295;44.772;39.872;2023-04-25T13:37:10;0.98;;;0.43;;
75682;SDS011;64295;44.772;39.872;2023-04-25T13:39:39;0.40;;;0.40;;
75682;SDS011;64295;44.772;39.872;2023-04-25T13:42:04;0.57;;;0.47;;
75682;SDS011;64295;44.772;39.872;2023-04-25T13:44:33;0.70;;;0.50;;
75682;SDS011;64295;44.772;39.872;2023-04-25T13:46:59;0.70;;;0.50;;
75682;SDS011;64295;44.772;39.872;2023-04-25T13:49:26;0.13;;;0.10;;
75682;SDS011;64295;44.772;39.872;2023-04-25T13:51:52;1.08;;;0.30;;
75682;SDS011;64295;44.772;39.872;2023-04-25T13:54:18;3.08;;;1.33;;
75682;SDS011;64295;44.772;39.872;2023-04-25T13:56:44;3.22;;;1.00;;
75682;SDS011;64295;44.772;39.872;2023-04-25T13:59:15;2.00;;;1.10;;
75682;SDS011;64295;44.772;39.872;2023-04-25T14:01:41;2.53;;;0.85;;
75682;SDS011;64295;44.772;39.872;2023-04-25T14:04:07;5.50;;;2.30;;
75682;SDS011;64295;44.772;39.872;2023-04-25T14:06:37;2.03;;;0.93;;
75682;SDS011;64295;44.772;39.872;2023-04-25T14:09:03;2.97;;;1.10;;
75682;SDS011;64295;44.772;39.872;2023-04-25T14:11:29;2.40;;;0.93;;
75682;SDS011;64295;44.772;39.872;2023-04-25T14:14:01;2.00;;;0.73;;
75682;SDS011;64295;44.772;39.872;2023-04-25T14:16:31;1.58;;;0.50;;
75682;SDS011;64295;44.772;39.872;2023-04-25T14:19:01;1.27;;;0.80;;
75682;SDS011;64295;44.772;39.872;2023-04-25T14:21:30;1.33;;;0.75;;
75682;SDS011;64295;44.772;39.872;2023-04-25T14:24:00;1.90;;;0.75;;
75682;SDS011;64295;44.772;39.872;2023-04-25T14:26:26;1.50;;;0.60;;
75682;SDS011;64295;44.772;39.872;2023-04-25T14:28:53;0.88;;;0.40;;
75682;SDS011;64295;44.772;39.872;2023-04-25T14:31:19;1.48;;;0.70;;
75682;SDS011;64295;44.772;39.872;2023-04-25T14:33:45;2.15;;;1.13;;
75682;SDS011;64295;44.772;39.872;2023-04-25T14:36:11;1.30;;;0.60;;
75682;SDS011;64295;44.772;39.872;2023-04-25T14:38:37;2.28;;;0.65;;
75682;SDS011;64295;44.772;39.872;2023-04-25T14:41:07;0.73;;;0.52;;
75682;SDS011;64295;44.772;39.872;2023-04-25T14:43:33;7.82;;;2.58;;
75682;SDS011;64295;44.772;39.872;2023-04-25T14:46:02;7.03;;;2.50;;
75682;SDS011;64295;44.772;39.872;2023-04-25T14:48:33;3.33;;;1.60;;
75682;SDS011;64295;44.772;39.872;2023-04-25T14:51:00;2.65;;;1.30;;
75682;SDS011;64295;44.772;39.872;2023-04-25T14:53:26;1.40;;;1.00;;
75682;SDS011;64295;44.772;39.872;2023-04-25T14:55:53;4.88;;;1.48;;
75682;SDS011;64295;44.772;39.872;2023-04-25T14:58:20;1.45;;;0.82;;
75682;SDS011;64295;44.772;39.872;2023-04-25T15:00:46;1.10;;;0.63;;
75682;SDS011;64295;44.772;39.872;2023-04-25T15:03:12;0.70;;;0.47;;
75682;SDS011;64295;44.772;39.872;2023-04-25T15:05:43;3.28;;;1.25;;
75682;SDS011;64295;44.772;39.872;2023-04-25T15:08:10;3.08;;;0.85;;
75682;SDS011;64295;44.772;39.872;2023-04-25T15:10:39;2.10;;;0.68;;
75682;SDS011;64295;44.772;39.872;2023-04-25T15:13:11;4.30;;;1.65;;
75682;SDS011;64295;44.772;39.872;2023-04-25T15:15:38;1.05;;;0.65;;